This is the latest recevied weather packets stored in our database for station/object K5NOC-12. If no packets are shown the sender has not sent any weather packets the latest 10 day(s).
| Time | Temp. | Humidity | Pressure | Rain* | Wind** | Luminosity | Snow |
|---|---|---|---|---|---|---|---|
| 1787847515 | 25.56° C | 64% | 1024.8 hPa | 0 mm | - | - | - |
| 1787846615 | 25° C | 66% | 1024.8 hPa | 0 mm | - | - | - |
| 1787845715 | 24.44° C | 69% | 1024.8 hPa | 0 mm | - | - | - |
| 1787844815 | 23.89° C | 70% | 1024.7 hPa | 0 mm | - | - | - |
| 1787843915 | 23.33° C | 70% | 1024.6 hPa | 0 mm | - | - | - |
| 1787842115 | 22.78° C | 69% | 1024.5 hPa | 0 mm | - | - | - |
| 1787841215 | 23.33° C | 70% | 1024.3 hPa | 0 mm | - | - | - |
| 1787840314 | 23.33° C | 73% | 1024.2 hPa | 0 mm | - | - | - |
| 1787839414 | 22.78° C | 75% | 1023.9 hPa | 0 mm | - | - | - |
| 1787838514 | 22.22° C | 77% | 1023.6 hPa | 0 mm | - | - | - |
| 1787837614 | 21.67° C | 78% | 1023.4 hPa | 0 mm | - | - | - |
| 1787836714 | 21.11° C | 79% | 1023.2 hPa | 0 mm | - | - | - |
| 1787835814 | 20° C | 80% | 1023.3 hPa | 0 mm | - | - | - |
| 1787834914 | 20° C | 80% | 1023.2 hPa | 0 mm | - | - | - |
| 1787834013 | 20° C | 79% | 1023.1 hPa | 0 mm | - | - | - |
| 1787833113 | 20.56° C | 78% | 1023.1 hPa | 0 mm | - | - | - |
| 1787832213 | 20.56° C | 78% | 1023.1 hPa | 0 mm | - | - | - |
| 1787831313 | 21.11° C | 77% | 1023 hPa | 0 mm | - | - | - |
| 1787830413 | 21.67° C | 77% | 1022.5 hPa | 0 mm | - | - | - |
| 1787829513 | 22.22° C | 75% | 1022.6 hPa | 0 mm | - | - | - |
| 1787828612 | 22.78° C | 74% | 1022.6 hPa | 0 mm | - | - | - |
| 1787827712 | 22.78° C | 70% | 1022.7 hPa | 0 mm | - | - | - |
| 1787826812 | 22.78° C | 70% | 1022.6 hPa | 0 mm | - | - | - |
| 1787825912 | 22.78° C | 72% | 1022.7 hPa | 0 mm | - | - | - |
| 1787825012 | 24.44° C | 65% | 1022.7 hPa | 0 mm | - | - | - |
* Rain latest hour (hover to see other rain measurements)
** Current wind speed in m/s (hover to see current wind gust speed)